sensor_id;sensor_type;location;lat;lon;timestamp;P1;durP1;ratioP1;P2;durP2;ratioP2
55756;SDS011;41676;44.610;44.078;2023-07-29T04:13:08;5.18;;;2.08;;
55756;SDS011;41676;44.610;44.078;2023-07-29T04:18:09;4.05;;;2.00;;
55756;SDS011;41676;44.610;44.078;2023-07-29T04:23:10;10.48;;;2.10;;
55756;SDS011;41676;44.610;44.078;2023-07-29T04:28:11;4.35;;;1.80;;
55756;SDS011;41676;44.610;44.078;2023-07-29T04:33:12;8.30;;;1.88;;
55756;SDS011;41676;44.610;44.078;2023-07-29T04:38:12;6.32;;;1.75;;
55756;SDS011;41676;44.610;44.078;2023-07-29T04:43:13;4.47;;;1.52;;
55756;SDS011;41676;44.610;44.078;2023-07-29T04:48:14;3.45;;;1.73;;
55756;SDS011;41676;44.610;44.078;2023-07-29T04:53:14;2.85;;;1.42;;
55756;SDS011;41676;44.610;44.078;2023-07-29T04:58:15;3.75;;;1.50;;
55756;SDS011;41676;44.610;44.078;2023-07-29T05:03:16;3.47;;;1.50;;
55756;SDS011;41676;44.610;44.078;2023-07-29T05:08:17;3.95;;;1.35;;
55756;SDS011;41676;44.610;44.078;2023-07-29T05:13:18;3.78;;;1.50;;
55756;SDS011;41676;44.610;44.078;2023-07-29T05:18:19;3.58;;;1.67;;
55756;SDS011;41676;44.610;44.078;2023-07-29T05:23:20;4.80;;;1.60;;
55756;SDS011;41676;44.610;44.078;2023-07-29T05:28:20;5.40;;;1.48;;
55756;SDS011;41676;44.610;44.078;2023-07-29T05:33:21;5.85;;;1.52;;
55756;SDS011;41676;44.610;44.078;2023-07-29T05:38:22;3.55;;;1.58;;
55756;SDS011;41676;44.610;44.078;2023-07-29T05:43:26;3.67;;;1.45;;
55756;SDS011;41676;44.610;44.078;2023-07-29T05:48:27;4.63;;;1.38;;
55756;SDS011;41676;44.610;44.078;2023-07-29T05:53:28;3.90;;;1.25;;
55756;SDS011;41676;44.610;44.078;2023-07-29T05:58:29;2.55;;;1.00;;
55756;SDS011;41676;44.610;44.078;2023-07-29T06:03:31;6.05;;;1.38;;
55756;SDS011;41676;44.610;44.078;2023-07-29T06:08:32;7.78;;;1.40;;
55756;SDS011;41676;44.610;44.078;2023-07-29T06:13:34;3.70;;;1.03;;
55756;SDS011;41676;44.610;44.078;2023-07-29T06:18:35;4.75;;;1.33;;
55756;SDS011;41676;44.610;44.078;2023-07-29T06:23:36;3.92;;;1.05;;
55756;SDS011;41676;44.610;44.078;2023-07-29T06:28:36;3.55;;;1.30;;
55756;SDS011;41676;44.610;44.078;2023-07-29T06:33:37;3.05;;;1.20;;
55756;SDS011;41676;44.610;44.078;2023-07-29T06:38:38;6.38;;;1.25;;
55756;SDS011;41676;44.610;44.078;2023-07-29T06:43:39;2.00;;;1.00;;
55756;SDS011;41676;44.610;44.078;2023-07-29T06:48:39;5.22;;;1.30;;
55756;SDS011;41676;44.610;44.078;2023-07-29T06:53:40;4.78;;;1.73;;
55756;SDS011;41676;44.610;44.078;2023-07-29T06:58:41;2.75;;;1.02;;
55756;SDS011;41676;44.610;44.078;2023-07-29T07:03:42;4.20;;;1.38;;
55756;SDS011;41676;44.610;44.078;2023-07-29T07:08:43;4.80;;;1.13;;
55756;SDS011;41676;44.610;44.078;2023-07-29T07:13:44;3.90;;;1.67;;
55756;SDS011;41676;44.610;44.078;2023-07-29T07:18:45;5.18;;;1.30;;
55756;SDS011;41676;44.610;44.078;2023-07-29T07:23:45;5.18;;;1.40;;
55756;SDS011;41676;44.610;44.078;2023-07-29T07:28:46;6.25;;;1.30;;
55756;SDS011;41676;44.610;44.078;2023-07-29T07:33:47;2.60;;;1.20;;
55756;SDS011;41676;44.610;44.078;2023-07-29T07:38:48;4.05;;;1.30;;
55756;SDS011;41676;44.610;44.078;2023-07-29T07:43:48;3.17;;;1.25;;
55756;SDS011;41676;44.610;44.078;2023-07-29T07:48:49;5.97;;;1.15;;
55756;SDS011;41676;44.610;44.078;2023-07-29T07:53:50;2.30;;;1.20;;
55756;SDS011;41676;44.610;44.078;2023-07-29T07:58:51;4.13;;;1.60;;
55756;SDS011;41676;44.610;44.078;2023-07-29T08:03:51;3.60;;;1.33;;
55756;SDS011;41676;44.610;44.078;2023-07-29T08:08:52;6.45;;;1.40;;
55756;SDS011;41676;44.610;44.078;2023-07-29T08:13:53;3.67;;;1.48;;
55756;SDS011;41676;44.610;44.078;2023-07-29T08:18:54;3.58;;;1.50;;
55756;SDS011;41676;44.610;44.078;2023-07-29T08:23:54;2.70;;;1.45;;
55756;SDS011;41676;44.610;44.078;2023-07-29T08:28:55;3.10;;;1.50;;
55756;SDS011;41676;44.610;44.078;2023-07-29T08:33:56;2.55;;;1.30;;
55756;SDS011;41676;44.610;44.078;2023-07-29T08:38:57;5.47;;;1.60;;
55756;SDS011;41676;44.610;44.078;2023-07-29T08:44:09;3.45;;;1.30;;
55756;SDS011;41676;44.610;44.078;2023-07-29T08:49:20;5.30;;;1.73;;
55756;SDS011;41676;44.610;44.078;2023-07-29T08:54:23;3.40;;;1.85;;
55756;SDS011;41676;44.610;44.078;2023-07-29T08:59:24;4.95;;;1.70;;
55756;SDS011;41676;44.610;44.078;2023-07-29T09:04:26;4.83;;;1.80;;
55756;SDS011;41676;44.610;44.078;2023-07-29T09:09:29;2.78;;;1.33;;
55756;SDS011;41676;44.610;44.078;2023-07-29T09:14:29;19.77;;;2.67;;
55756;SDS011;41676;44.610;44.078;2023-07-29T09:19:32;4.60;;;1.55;;
55756;SDS011;41676;44.610;44.078;2023-07-29T09:24:33;2.15;;;1.27;;
55756;SDS011;41676;44.610;44.078;2023-07-29T09:29:35;2.35;;;1.30;;
55756;SDS011;41676;44.610;44.078;2023-07-29T09:34:41;3.47;;;1.50;;
55756;SDS011;41676;44.610;44.078;2023-07-29T09:39:45;2.78;;;1.38;;
55756;SDS011;41676;44.610;44.078;2023-07-29T09:44:48;5.07;;;1.25;;
55756;SDS011;41676;44.610;44.078;2023-07-29T09:49:51;3.25;;;1.42;;
55756;SDS011;41676;44.610;44.078;2023-07-29T09:54:52;3.47;;;1.40;;
55756;SDS011;41676;44.610;44.078;2023-07-29T09:59:56;3.47;;;1.30;;
55756;SDS011;41676;44.610;44.078;2023-07-29T10:04:57;3.75;;;1.40;;
55756;SDS011;41676;44.610;44.078;2023-07-29T10:09:59;4.35;;;1.33;;
55756;SDS011;41676;44.610;44.078;2023-07-29T10:15:03;3.20;;;1.20;;
55756;SDS011;41676;44.610;44.078;2023-07-29T10:20:06;3.45;;;1.17;;
55756;SDS011;41676;44.610;44.078;2023-07-29T10:25:24;2.65;;;1.30;;
55756;SDS011;41676;44.610;44.078;2023-07-29T10:30:32;4.03;;;1.48;;
55756;SDS011;41676;44.610;44.078;2023-07-29T10:35:33;4.18;;;1.30;;
55756;SDS011;41676;44.610;44.078;2023-07-29T10:40:44;7.20;;;1.60;;
55756;SDS011;41676;44.610;44.078;2023-07-29T10:45:45;2.97;;;1.60;;
55756;SDS011;41676;44.610;44.078;2023-07-29T10:50:46;4.30;;;1.80;;
55756;SDS011;41676;44.610;44.078;2023-07-29T10:55:47;5.43;;;2.50;;
55756;SDS011;41676;44.610;44.078;2023-07-29T11:00:48;4.95;;;1.40;;
55756;SDS011;41676;44.610;44.078;2023-07-29T11:05:50;5.00;;;1.52;;
55756;SDS011;41676;44.610;44.078;2023-07-29T11:10:59;6.95;;;1.50;;
55756;SDS011;41676;44.610;44.078;2023-07-29T11:16:02;5.25;;;1.67;;
55756;SDS011;41676;44.610;44.078;2023-07-29T11:21:04;4.75;;;1.40;;
55756;SDS011;41676;44.610;44.078;2023-07-29T11:26:05;2.53;;;1.50;;
55756;SDS011;41676;44.610;44.078;2023-07-29T11:31:06;4.75;;;1.50;;
55756;SDS011;41676;44.610;44.078;2023-07-29T11:36:16;3.75;;;1.73;;
55756;SDS011;41676;44.610;44.078;2023-07-29T11:41:23;2.97;;;1.50;;
55756;SDS011;41676;44.610;44.078;2023-07-29T11:46:24;3.00;;;1.50;;
55756;SDS011;41676;44.610;44.078;2023-07-29T11:51:25;3.53;;;1.70;;
55756;SDS011;41676;44.610;44.078;2023-07-29T11:56:26;5.35;;;1.65;;
55756;SDS011;41676;44.610;44.078;2023-07-29T12:01:27;5.10;;;1.65;;
55756;SDS011;41676;44.610;44.078;2023-07-29T12:06:29;4.07;;;1.50;;
55756;SDS011;41676;44.610;44.078;2023-07-29T12:11:31;2.83;;;1.50;;
55756;SDS011;41676;44.610;44.078;2023-07-29T12:16:39;2.30;;;1.40;;
55756;SDS011;41676;44.610;44.078;2023-07-29T12:21:41;7.30;;;1.40;;
55756;SDS011;41676;44.610;44.078;2023-07-29T12:26:42;4.22;;;1.30;;
55756;SDS011;41676;44.610;44.078;2023-07-29T12:31:45;5.97;;;1.83;;
55756;SDS011;41676;44.610;44.078;2023-07-29T12:36:47;4.10;;;1.40;;
55756;SDS011;41676;44.610;44.078;2023-07-29T12:46:50;2.15;;;1.20;;
55756;SDS011;41676;44.610;44.078;2023-07-29T12:51:51;5.75;;;1.23;;
55756;SDS011;41676;44.610;44.078;2023-07-29T12:56:53;5.05;;;1.38;;
55756;SDS011;41676;44.610;44.078;2023-07-29T13:01:54;4.80;;;1.25;;
55756;SDS011;41676;44.610;44.078;2023-07-29T13:06:54;2.65;;;1.20;;
55756;SDS011;41676;44.610;44.078;2023-07-29T13:11:56;3.40;;;1.50;;
55756;SDS011;41676;44.610;44.078;2023-07-29T13:16:57;3.00;;;1.50;;
55756;SDS011;41676;44.610;44.078;2023-07-29T13:21:58;2.25;;;1.15;;
55756;SDS011;41676;44.610;44.078;2023-07-29T13:26:59;3.78;;;1.20;;
55756;SDS011;41676;44.610;44.078;2023-07-29T13:31:59;3.20;;;1.58;;
55756;SDS011;41676;44.610;44.078;2023-07-29T13:37:00;6.50;;;3.15;;
55756;SDS011;41676;44.610;44.078;2023-07-29T13:42:01;4.00;;;1.65;;
55756;SDS011;41676;44.610;44.078;2023-07-29T13:47:02;34.70;;;2.15;;
55756;SDS011;41676;44.610;44.078;2023-07-29T13:52:03;4.43;;;1.45;;
55756;SDS011;41676;44.610;44.078;2023-07-29T13:57:04;4.18;;;1.40;;
55756;SDS011;41676;44.610;44.078;2023-07-29T14:02:06;10.30;;;1.70;;
55756;SDS011;41676;44.610;44.078;2023-07-29T14:07:07;6.13;;;1.30;;
55756;SDS011;41676;44.610;44.078;2023-07-29T14:12:08;7.28;;;1.35;;
55756;SDS011;41676;44.610;44.078;2023-07-29T14:17:14;2.83;;;1.30;;
55756;SDS011;41676;44.610;44.078;2023-07-29T14:22:15;3.22;;;1.50;;
55756;SDS011;41676;44.610;44.078;2023-07-29T14:27:16;4.97;;;1.30;;
55756;SDS011;41676;44.610;44.078;2023-07-29T14:32:17;4.55;;;1.38;;
55756;SDS011;41676;44.610;44.078;2023-07-29T14:37:17;2.60;;;1.15;;
55756;SDS011;41676;44.610;44.078;2023-07-29T14:42:18;6.60;;;1.45;;
55756;SDS011;41676;44.610;44.078;2023-07-29T14:47:19;8.40;;;1.77;;
55756;SDS011;41676;44.610;44.078;2023-07-29T14:52:20;8.18;;;1.70;;
55756;SDS011;41676;44.610;44.078;2023-07-29T14:57:21;5.43;;;1.58;;
55756;SDS011;41676;44.610;44.078;2023-07-29T15:02:22;3.92;;;1.60;;
55756;SDS011;41676;44.610;44.078;2023-07-29T15:07:23;2.28;;;1.27;;
55756;SDS011;41676;44.610;44.078;2023-07-29T15:12:24;2.33;;;1.40;;
55756;SDS011;41676;44.610;44.078;2023-07-29T15:17:25;2.40;;;1.27;;
55756;SDS011;41676;44.610;44.078;2023-07-29T15:22:26;3.00;;;1.10;;
55756;SDS011;41676;44.610;44.078;2023-07-29T15:27:27;8.52;;;1.33;;
55756;SDS011;41676;44.610;44.078;2023-07-29T15:32:28;4.40;;;1.30;;
55756;SDS011;41676;44.610;44.078;2023-07-29T15:37:29;6.47;;;1.35;;
55756;SDS011;41676;44.610;44.078;2023-07-29T15:42:30;6.38;;;1.73;;
55756;SDS011;41676;44.610;44.078;2023-07-29T15:47:31;4.78;;;1.80;;
55756;SDS011;41676;44.610;44.078;2023-07-29T15:52:32;7.18;;;1.55;;
55756;SDS011;41676;44.610;44.078;2023-07-29T15:57:32;18.98;;;2.08;;
55756;SDS011;41676;44.610;44.078;2023-07-29T16:02:33;15.05;;;1.48;;
55756;SDS011;41676;44.610;44.078;2023-07-29T16:07:34;22.33;;;2.33;;
55756;SDS011;41676;44.610;44.078;2023-07-29T16:12:35;4.78;;;1.67;;
55756;SDS011;41676;44.610;44.078;2023-07-29T16:22:38;12.40;;;1.65;;
55756;SDS011;41676;44.610;44.078;2023-07-29T16:27:39;14.63;;;2.00;;
55756;SDS011;41676;44.610;44.078;2023-07-29T16:32:40;38.75;;;3.30;;
55756;SDS011;41676;44.610;44.078;2023-07-29T16:37:41;24.50;;;2.92;;
55756;SDS011;41676;44.610;44.078;2023-07-29T16:42:42;26.45;;;3.28;;
55756;SDS011;41676;44.610;44.078;2023-07-29T16:47:42;58.05;;;3.70;;
55756;SDS011;41676;44.610;44.078;2023-07-29T16:52:44;41.85;;;3.25;;
55756;SDS011;41676;44.610;44.078;2023-07-29T16:57:45;25.60;;;2.88;;
55756;SDS011;41676;44.610;44.078;2023-07-29T17:02:46;28.00;;;3.30;;
55756;SDS011;41676;44.610;44.078;2023-07-29T17:07:46;43.85;;;3.55;;
55756;SDS011;41676;44.610;44.078;2023-07-29T17:12:47;14.15;;;2.13;;
55756;SDS011;41676;44.610;44.078;2023-07-29T17:17:48;16.17;;;2.50;;
55756;SDS011;41676;44.610;44.078;2023-07-29T17:22:49;10.18;;;1.80;;
55756;SDS011;41676;44.610;44.078;2023-07-29T17:27:50;12.35;;;1.85;;
55756;SDS011;41676;44.610;44.078;2023-07-29T17:32:51;6.68;;;1.90;;
55756;SDS011;41676;44.610;44.078;2023-07-29T17:37:52;8.00;;;1.50;;
55756;SDS011;41676;44.610;44.078;2023-07-29T17:42:52;25.45;;;2.53;;
55756;SDS011;41676;44.610;44.078;2023-07-29T17:47:53;8.77;;;1.83;;
55756;SDS011;41676;44.610;44.078;2023-07-29T17:52:54;7.00;;;2.10;;
55756;SDS011;41676;44.610;44.078;2023-07-29T17:57:58;10.45;;;2.55;;
55756;SDS011;41676;44.610;44.078;2023-07-29T18:02:59;9.43;;;2.20;;
55756;SDS011;41676;44.610;44.078;2023-07-29T18:08:00;8.48;;;2.17;;
55756;SDS011;41676;44.610;44.078;2023-07-29T18:13:01;6.82;;;1.98;;
55756;SDS011;41676;44.610;44.078;2023-07-29T18:18:02;3.92;;;2.00;;
55756;SDS011;41676;44.610;44.078;2023-07-29T18:23:04;5.95;;;1.98;;
55756;SDS011;41676;44.610;44.078;2023-07-29T18:28:05;12.82;;;2.50;;
55756;SDS011;41676;44.610;44.078;2023-07-29T18:33:06;10.50;;;2.15;;
55756;SDS011;41676;44.610;44.078;2023-07-29T18:38:08;8.30;;;2.20;;
55756;SDS011;41676;44.610;44.078;2023-07-29T18:43:09;7.43;;;2.10;;
55756;SDS011;41676;44.610;44.078;2023-07-29T18:48:10;7.25;;;2.25;;
55756;SDS011;41676;44.610;44.078;2023-07-29T18:53:10;18.38;;;2.55;;
55756;SDS011;41676;44.610;44.078;2023-07-29T18:58:11;21.33;;;2.67;;
55756;SDS011;41676;44.610;44.078;2023-07-29T19:03:12;11.18;;;2.63;;
55756;SDS011;41676;44.610;44.078;2023-07-29T19:08:14;7.90;;;2.47;;
55756;SDS011;41676;44.610;44.078;2023-07-29T19:13:15;8.02;;;2.25;;
55756;SDS011;41676;44.610;44.078;2023-07-29T19:18:15;4.82;;;1.80;;
55756;SDS011;41676;44.610;44.078;2023-07-29T19:23:16;6.28;;;2.13;;
55756;SDS011;41676;44.610;44.078;2023-07-29T19:28:18;12.07;;;2.58;;
55756;SDS011;41676;44.610;44.078;2023-07-29T19:33:19;13.88;;;2.30;;
55756;SDS011;41676;44.610;44.078;2023-07-29T19:38:20;6.13;;;2.35;;
55756;SDS011;41676;44.610;44.078;2023-07-29T19:43:21;24.88;;;3.10;;
55756;SDS011;41676;44.610;44.078;2023-07-29T19:48:24;12.98;;;2.53;;
55756;SDS011;41676;44.610;44.078;2023-07-29T19:53:25;43.88;;;3.13;;
55756;SDS011;41676;44.610;44.078;2023-07-29T19:58:25;13.18;;;2.65;;
55756;SDS011;41676;44.610;44.078;2023-07-29T20:03:26;12.93;;;3.25;;
55756;SDS011;41676;44.610;44.078;2023-07-29T20:08:27;5.40;;;2.05;;
55756;SDS011;41676;44.610;44.078;2023-07-29T20:13:28;9.77;;;2.92;;
55756;SDS011;41676;44.610;44.078;2023-07-29T20:18:29;11.98;;;3.20;;
55756;SDS011;41676;44.610;44.078;2023-07-29T20:23:29;9.55;;;2.80;;
55756;SDS011;41676;44.610;44.078;2023-07-29T20:28:30;10.90;;;2.53;;
55756;SDS011;41676;44.610;44.078;2023-07-29T20:33:31;7.43;;;2.65;;
55756;SDS011;41676;44.610;44.078;2023-07-29T20:38:32;9.65;;;2.85;;
55756;SDS011;41676;44.610;44.078;2023-07-29T20:43:33;8.02;;;3.15;;
55756;SDS011;41676;44.610;44.078;2023-07-29T20:48:34;8.77;;;3.25;;
55756;SDS011;41676;44.610;44.078;2023-07-29T20:53:35;9.20;;;3.30;;
55756;SDS011;41676;44.610;44.078;2023-07-29T20:58:36;6.95;;;2.92;;
55756;SDS011;41676;44.610;44.078;2023-07-29T21:03:37;9.95;;;3.90;;
55756;SDS011;41676;44.610;44.078;2023-07-29T21:08:38;10.43;;;4.57;;
55756;SDS011;41676;44.610;44.078;2023-07-29T21:13:39;10.80;;;5.05;;
55756;SDS011;41676;44.610;44.078;2023-07-29T21:18:39;7.63;;;4.40;;
55756;SDS011;41676;44.610;44.078;2023-07-29T21:23:40;8.05;;;3.88;;
55756;SDS011;41676;44.610;44.078;2023-07-29T21:28:41;8.82;;;3.92;;
55756;SDS011;41676;44.610;44.078;2023-07-29T21:33:42;7.03;;;3.92;;
55756;SDS011;41676;44.610;44.078;2023-07-29T21:38:43;9.73;;;4.60;;
55756;SDS011;41676;44.610;44.078;2023-07-29T21:43:44;13.15;;;4.68;;
55756;SDS011;41676;44.610;44.078;2023-07-29T21:48:44;11.25;;;4.45;;
55756;SDS011;41676;44.610;44.078;2023-07-29T21:53:46;8.93;;;4.10;;
55756;SDS011;41676;44.610;44.078;2023-07-29T21:58:47;11.52;;;4.75;;
55756;SDS011;41676;44.610;44.078;2023-07-29T22:03:47;7.15;;;4.22;;
55756;SDS011;41676;44.610;44.078;2023-07-29T22:08:48;7.90;;;4.22;;
55756;SDS011;41676;44.610;44.078;2023-07-29T22:13:49;7.35;;;4.45;;
55756;SDS011;41676;44.610;44.078;2023-07-29T22:18:50;16.38;;;4.95;;
55756;SDS011;41676;44.610;44.078;2023-07-29T22:23:51;9.65;;;4.82;;
55756;SDS011;41676;44.610;44.078;2023-07-29T22:28:52;9.35;;;5.03;;
55756;SDS011;41676;44.610;44.078;2023-07-29T22:33:53;7.28;;;4.10;;
55756;SDS011;41676;44.610;44.078;2023-07-29T22:38:53;11.80;;;5.30;;
55756;SDS011;41676;44.610;44.078;2023-07-29T22:43:54;12.90;;;4.93;;
55756;SDS011;41676;44.610;44.078;2023-07-29T22:48:55;11.20;;;4.90;;
55756;SDS011;41676;44.610;44.078;2023-07-29T22:53:56;11.65;;;4.38;;
55756;SDS011;41676;44.610;44.078;2023-07-29T22:58:57;8.73;;;4.60;;
55756;SDS011;41676;44.610;44.078;2023-07-29T23:03:59;7.78;;;4.57;;
55756;SDS011;41676;44.610;44.078;2023-07-29T23:09:00;8.00;;;4.18;;
55756;SDS011;41676;44.610;44.078;2023-07-29T23:14:00;9.40;;;4.40;;
55756;SDS011;41676;44.610;44.078;2023-07-29T23:19:01;9.00;;;4.88;;
55756;SDS011;41676;44.610;44.078;2023-07-29T23:24:02;7.90;;;4.55;;
55756;SDS011;41676;44.610;44.078;2023-07-29T23:29:03;9.40;;;4.88;;
55756;SDS011;41676;44.610;44.078;2023-07-29T23:34:04;7.82;;;4.53;;
55756;SDS011;41676;44.610;44.078;2023-07-29T23:39:04;7.97;;;4.90;;
55756;SDS011;41676;44.610;44.078;2023-07-29T23:44:05;8.88;;;4.57;;
55756;SDS011;41676;44.610;44.078;2023-07-29T23:49:06;7.88;;;4.32;;
55756;SDS011;41676;44.610;44.078;2023-07-29T23:54:07;9.18;;;4.35;;
55756;SDS011;41676;44.610;44.078;2023-07-29T23:59:08;9.48;;;4.63;;
